createdAt,value
2023-05-10T00:02:10.690Z,6.66
2023-05-10T00:04:38.947Z,6.59
2023-05-10T00:07:06.927Z,6.52
2023-05-10T00:09:34.996Z,6.47
2023-05-10T00:12:03.072Z,6.43
2023-05-10T00:14:31.457Z,6.39
2023-05-10T00:16:59.712Z,6.33
2023-05-10T00:19:27.875Z,6.29
2023-05-10T00:21:56.613Z,6.25
2023-05-10T00:24:24.600Z,6.20
2023-05-10T00:26:52.590Z,6.19
2023-05-10T00:29:20.777Z,6.16
2023-05-10T00:31:49.457Z,6.12
2023-05-10T00:34:17.564Z,6.09
2023-05-10T00:36:46.580Z,6.05
2023-05-10T00:39:14.642Z,6.03
2023-05-10T00:41:42.706Z,6.00
2023-05-10T00:44:10.856Z,5.96
2023-05-10T00:46:39.149Z,5.93
2023-05-10T00:49:07.744Z,5.88
2023-05-10T00:51:36.319Z,5.85
2023-05-10T00:54:04.511Z,5.80
2023-05-10T00:56:32.768Z,5.75
2023-05-10T00:59:01.028Z,5.73
2023-05-10T01:01:30.028Z,5.71
2023-05-10T01:03:59.243Z,5.71
2023-05-10T01:06:27.288Z,5.72
2023-05-10T01:08:55.897Z,5.74
2023-05-10T01:11:23.879Z,5.70
2023-05-10T01:13:57.656Z,5.73
2023-05-10T01:16:27.480Z,5.77
2023-05-10T01:18:56.480Z,5.78
2023-05-10T01:21:28.826Z,5.79
2023-05-10T01:24:16.075Z,5.79
2023-05-10T01:27:02.738Z,5.74
2023-05-10T01:29:33.929Z,5.72
2023-05-10T01:32:24.353Z,5.69
2023-05-10T01:35:07.543Z,5.65
2023-05-10T01:37:46.030Z,5.59
2023-05-10T01:40:48.253Z,5.54
2023-05-10T01:43:29.490Z,5.50
2023-05-10T01:46:21.747Z,5.44
2023-05-10T01:48:55.162Z,5.36
2023-05-10T01:51:27.064Z,5.31
2023-05-10T01:54:01.648Z,5.25
2023-05-10T01:56:33.399Z,5.20
2023-05-10T01:59:07.172Z,5.15
2023-05-10T02:01:37.531Z,5.08
2023-05-10T02:04:07.766Z,5.03
2023-05-10T02:06:37.466Z,4.97
2023-05-10T02:09:07.794Z,4.92
2023-05-10T02:11:38.949Z,4.87
2023-05-10T02:14:10.682Z,4.84
2023-05-10T02:16:40.599Z,4.84
2023-05-10T02:19:11.841Z,4.81
2023-05-10T02:21:41.411Z,4.78
2023-05-10T02:24:11.781Z,4.77
2023-05-10T02:26:40.872Z,4.72
2023-05-10T02:29:10.993Z,4.64
2023-05-10T02:31:40.146Z,4.61
2023-05-10T02:34:10.059Z,4.57
2023-05-10T02:36:40.644Z,4.53
2023-05-10T02:39:13.932Z,4.49
2023-05-10T02:41:44.560Z,4.45
2023-05-10T02:44:15.636Z,4.40
2023-05-10T02:46:44.374Z,4.38
2023-05-10T02:49:12.781Z,4.36
2023-05-10T02:51:50.301Z,4.32
2023-05-10T02:54:26.613Z,4.27
2023-05-10T02:57:03.947Z,4.24
2023-05-10T02:59:33.739Z,4.19
2023-05-10T03:02:03.313Z,4.17
2023-05-10T03:04:31.640Z,4.15
2023-05-10T03:07:00.240Z,4.10
2023-05-10T03:09:28.585Z,4.08
2023-05-10T03:12:06.688Z,4.05
2023-05-10T03:14:40.902Z,4.03
2023-05-10T03:17:23.307Z,4.03
2023-05-10T03:19:56.689Z,4.02
2023-05-10T03:22:31.761Z,4.00
2023-05-10T03:25:06.793Z,3.98
2023-05-10T03:27:37.920Z,3.97
2023-05-10T03:30:09.367Z,3.98
2023-05-10T03:32:38.296Z,3.98
2023-05-10T03:35:10.190Z,3.99
2023-05-10T03:37:38.407Z,4.03
2023-05-10T03:40:08.015Z,4.08
2023-05-10T03:42:37.537Z,4.14
2023-05-10T03:45:06.120Z,4.19
2023-05-10T03:47:34.172Z,4.27
2023-05-10T03:50:02.890Z,4.33
2023-05-10T03:52:31.132Z,4.38
2023-05-10T03:54:59.315Z,4.40
2023-05-10T03:57:27.277Z,4.45
2023-05-10T03:59:55.537Z,4.52
2023-05-10T04:02:25.157Z,4.58
2023-05-10T04:04:53.558Z,4.64
2023-05-10T04:07:21.850Z,4.73
2023-05-10T04:09:49.804Z,4.81
2023-05-10T04:12:17.972Z,4.88
2023-05-10T04:14:46.250Z,4.95
2023-05-10T04:17:14.351Z,5.03
2023-05-10T04:19:42.458Z,5.13
2023-05-10T04:22:10.317Z,5.21
2023-05-10T04:24:38.298Z,5.28
2023-05-10T04:27:06.281Z,5.35
2023-05-10T04:29:34.255Z,5.38
2023-05-10T04:32:02.330Z,5.40
2023-05-10T04:34:30.402Z,5.45
2023-05-10T04:36:58.476Z,5.49
2023-05-10T04:39:26.546Z,5.54
2023-05-10T04:41:54.631Z,5.59
2023-05-10T04:44:22.545Z,5.64
2023-05-10T04:46:50.603Z,5.70
2023-05-10T04:49:19.137Z,5.76
2023-05-10T04:51:47.617Z,5.82
2023-05-10T04:54:15.962Z,5.89
2023-05-10T04:56:43.969Z,5.96
2023-05-10T04:59:11.959Z,6.02
2023-05-10T05:01:40.699Z,6.09
2023-05-10T05:04:08.664Z,6.15
2023-05-10T05:06:36.870Z,6.22
2023-05-10T05:09:05.042Z,6.27
2023-05-10T05:11:33.119Z,6.34
2023-05-10T05:14:01.499Z,6.41
2023-05-10T05:16:31.924Z,6.49
2023-05-10T05:19:01.835Z,6.57
2023-05-10T05:21:30.325Z,6.65
2023-05-10T05:23:58.334Z,6.73
2023-05-10T05:26:27.684Z,6.81
2023-05-10T05:28:55.972Z,6.89
2023-05-10T05:31:23.964Z,6.97
2023-05-10T05:33:52.217Z,7.05
2023-05-10T05:36:20.179Z,7.13
2023-05-10T05:38:48.254Z,7.21
2023-05-10T05:41:16.221Z,7.30
2023-05-10T05:43:44.416Z,7.38
2023-05-10T05:46:12.545Z,7.46
2023-05-10T05:48:40.526Z,7.53
2023-05-10T05:51:08.513Z,7.62
2023-05-10T05:53:36.678Z,7.70
2023-05-10T05:56:05.275Z,7.77
2023-05-10T05:58:33.237Z,7.86
2023-05-10T06:01:01.312Z,7.95
2023-05-10T06:03:29.535Z,8.05
2023-05-10T06:05:57.679Z,8.14
2023-05-10T06:08:25.849Z,8.23
2023-05-10T06:10:53.905Z,8.32
2023-05-10T06:13:22.440Z,8.40
2023-05-10T06:15:50.514Z,8.50
2023-05-10T06:18:18.670Z,8.60
2023-05-10T06:20:46.629Z,8.69
2023-05-10T06:23:14.670Z,8.77
2023-05-10T06:25:42.659Z,8.86
2023-05-10T06:28:10.578Z,8.95
2023-05-10T06:30:38.802Z,9.03
2023-05-10T06:33:06.835Z,9.11
2023-05-10T06:35:35.240Z,9.20
2023-05-10T06:38:03.311Z,9.30
2023-05-10T06:40:31.282Z,9.40
2023-05-10T06:42:59.323Z,9.48
2023-05-10T06:45:27.329Z,9.56
2023-05-10T06:47:55.275Z,9.64
2023-05-10T06:50:23.372Z,9.72
2023-05-10T06:52:53.056Z,9.80
2023-05-10T06:55:21.555Z,9.88
2023-05-10T06:57:49.565Z,9.96
2023-05-10T07:00:19.264Z,10.04
2023-05-10T07:02:48.141Z,10.11
2023-05-10T07:05:16.611Z,10.17
2023-05-10T07:07:44.980Z,10.22
2023-05-10T07:10:13.064Z,10.29
2023-05-10T07:12:41.289Z,10.35
2023-05-10T07:15:10.429Z,10.42
2023-05-10T07:17:38.665Z,10.50
2023-05-10T07:20:07.729Z,10.59
2023-05-10T07:22:35.627Z,10.66
2023-05-10T07:25:03.847Z,10.73
2023-05-10T07:27:31.810Z,10.80
2023-05-10T07:29:59.888Z,10.87
2023-05-10T07:32:27.938Z,10.91
2023-05-10T07:34:56.146Z,10.97
2023-05-10T07:37:24.204Z,11.04
2023-05-10T07:39:52.167Z,11.13
2023-05-10T07:42:20.143Z,11.24
2023-05-10T07:44:48.422Z,11.30
2023-05-10T07:47:16.320Z,11.37
2023-05-10T07:49:44.826Z,11.41
2023-05-10T07:52:13.047Z,11.48
2023-05-10T07:54:41.108Z,11.56
2023-05-10T07:57:09.286Z,11.61
2023-05-10T07:59:37.662Z,11.70
2023-05-10T08:02:05.995Z,11.78
2023-05-10T08:04:34.115Z,11.89
2023-05-10T08:07:02.391Z,11.97
2023-05-10T08:09:30.472Z,11.97
2023-05-10T08:12:00.502Z,11.91
2023-05-10T08:14:30.072Z,12.00
2023-05-10T08:16:58.169Z,12.11
2023-05-10T08:19:26.235Z,12.15
2023-05-10T08:21:56.464Z,12.28
2023-05-10T08:24:24.723Z,12.40
2023-05-10T08:26:52.784Z,12.50
2023-05-10T08:29:20.872Z,12.62
2023-05-10T08:31:48.820Z,12.75
2023-05-10T08:34:17.021Z,12.86
2023-05-10T08:36:45.092Z,12.92
2023-05-10T08:39:22.959Z,12.95
2023-05-10T08:42:05.675Z,12.97
2023-05-10T08:44:35.638Z,12.96
2023-05-10T08:47:07.058Z,13.12
2023-05-10T08:49:36.013Z,13.31
2023-05-10T08:52:06.641Z,13.45
2023-05-10T08:54:35.523Z,13.49
2023-05-10T08:57:04.184Z,13.53
2023-05-10T08:59:32.302Z,13.66
2023-05-10T09:02:01.772Z,13.85
2023-05-10T09:04:30.898Z,14.05
2023-05-10T09:06:59.312Z,14.12
2023-05-10T09:09:29.103Z,14.25
2023-05-10T09:11:57.533Z,14.37
2023-05-10T09:14:26.308Z,14.54
2023-05-10T09:16:56.429Z,14.61
2023-05-10T09:19:24.618Z,14.61
2023-05-10T09:21:52.575Z,14.71
2023-05-10T09:24:20.536Z,14.70
2023-05-10T09:26:49.761Z,14.85
2023-05-10T09:29:18.532Z,14.85
2023-05-10T09:31:48.463Z,14.83
2023-05-10T09:34:22.231Z,14.87
2023-05-10T09:36:55.591Z,14.86
2023-05-10T09:39:38.000Z,14.87
2023-05-10T09:42:08.305Z,14.87
2023-05-10T09:44:37.296Z,14.89
2023-05-10T09:47:05.763Z,14.92
2023-05-10T09:49:34.432Z,15.08
2023-05-10T09:52:04.757Z,15.31
2023-05-10T09:54:33.788Z,15.54
2023-05-10T09:57:02.210Z,15.75
2023-05-10T09:59:30.824Z,15.91
2023-05-10T10:02:00.787Z,16.09
2023-05-10T10:04:29.589Z,16.24
2023-05-10T10:07:05.543Z,16.42
2023-05-10T10:09:35.300Z,16.42
2023-05-10T10:12:05.567Z,16.46
2023-05-10T10:14:35.228Z,16.63
2023-05-10T10:19:36.970Z,16.89
2023-05-10T10:22:05.792Z,17.00
2023-05-10T10:24:34.154Z,17.05
2023-05-10T10:27:15.627Z,17.06
2023-05-10T10:30:01.906Z,16.91
2023-05-10T10:33:13.327Z,16.67
2023-05-10T10:35:48.783Z,16.53
2023-05-10T10:38:17.676Z,16.27
2023-05-10T10:40:45.656Z,16.13
2023-05-10T10:43:29.465Z,16.10
2023-05-10T10:46:18.079Z,15.86
2023-05-10T10:49:09.151Z,15.93
2023-05-10T10:51:41.020Z,15.92
2023-05-10T10:54:12.966Z,15.97
2023-05-10T10:56:41.052Z,16.05
2023-05-10T10:59:09.946Z,16.15
2023-05-10T11:01:38.186Z,16.24
2023-05-10T11:04:06.338Z,16.31
2023-05-10T11:06:36.666Z,16.40
2023-05-10T11:09:10.518Z,16.54
2023-05-10T11:11:56.531Z,16.70
2023-05-10T11:14:25.311Z,16.75
2023-05-10T11:16:53.678Z,16.77
2023-05-10T11:19:21.851Z,16.72
2023-05-10T11:21:51.034Z,16.64
2023-05-10T11:24:22.192Z,16.60
2023-05-10T11:26:54.333Z,16.60
2023-05-10T11:29:22.499Z,16.73
2023-05-10T11:31:50.942Z,16.94
2023-05-10T11:34:26.826Z,17.13
2023-05-10T11:36:56.530Z,17.37
2023-05-10T11:39:29.811Z,17.62
2023-05-10T11:41:58.890Z,17.86
2023-05-10T11:44:33.937Z,18.05
2023-05-10T11:47:02.954Z,18.16
2023-05-10T11:49:31.286Z,18.27
2023-05-10T11:52:08.854Z,18.23
2023-05-10T11:54:37.057Z,18.06
2023-05-10T11:57:05.328Z,17.89
2023-05-10T11:59:33.263Z,17.81
2023-05-10T12:02:01.604Z,17.72
2023-05-10T12:04:30.659Z,17.64
2023-05-10T12:06:59.166Z,17.50
2023-05-10T12:09:42.508Z,17.47
2023-05-10T12:12:18.115Z,17.44
2023-05-10T12:14:51.562Z,17.37
2023-05-10T12:17:19.609Z,17.39
2023-05-10T12:19:48.396Z,17.55
2023-05-10T12:22:16.367Z,17.77
2023-05-10T12:24:46.424Z,17.96
2023-05-10T12:27:15.977Z,18.03
2023-05-10T12:29:47.221Z,18.01
2023-05-10T12:32:15.208Z,18.03
2023-05-10T12:34:43.264Z,18.07
2023-05-10T12:37:11.339Z,17.90
2023-05-10T12:39:41.441Z,18.08
2023-05-10T12:42:10.082Z,18.34
2023-05-10T12:44:38.315Z,18.49
2023-05-10T12:47:07.258Z,18.62
2023-05-10T12:49:35.518Z,18.71
2023-05-10T12:52:03.695Z,18.70
2023-05-10T12:54:31.732Z,18.54
2023-05-10T12:56:59.727Z,18.37
2023-05-10T12:59:27.889Z,18.49
2023-05-10T13:01:55.952Z,18.63
2023-05-10T13:04:24.279Z,18.68
2023-05-10T13:06:52.534Z,18.68
2023-05-10T13:09:21.610Z,18.72
2023-05-10T13:11:50.410Z,18.70
2023-05-10T13:14:20.496Z,18.71
2023-05-10T13:16:48.852Z,18.68
2023-05-10T13:19:17.923Z,18.68
2023-05-10T13:21:46.050Z,18.66
2023-05-10T13:24:18.117Z,18.52
2023-05-10T13:26:46.123Z,18.63
2023-05-10T13:29:14.163Z,18.70
2023-05-10T13:31:42.389Z,18.54
2023-05-10T13:34:10.516Z,18.42
2023-05-10T13:36:38.582Z,18.41
2023-05-10T13:39:06.757Z,18.38
2023-05-10T13:41:35.238Z,18.36
2023-05-10T13:44:03.421Z,18.31
2023-05-10T13:46:32.150Z,18.05
2023-05-10T13:49:00.213Z,17.82
2023-05-10T13:51:28.246Z,17.69
2023-05-10T13:53:56.316Z,17.54
2023-05-10T13:56:24.382Z,17.40
2023-05-10T13:58:52.501Z,17.34
2023-05-10T14:01:20.871Z,17.30
2023-05-10T14:03:49.480Z,17.31
2023-05-10T14:06:17.600Z,17.32
2023-05-10T14:08:45.858Z,17.36
2023-05-10T14:11:14.063Z,17.37
2023-05-10T14:13:42.330Z,17.43
2023-05-10T14:16:10.411Z,17.50
2023-05-10T14:18:39.033Z,17.53
2023-05-10T14:21:07.467Z,17.44
2023-05-10T14:23:35.432Z,17.30
2023-05-10T14:26:03.976Z,17.14
2023-05-10T14:28:32.202Z,16.98
2023-05-10T14:31:00.435Z,16.87
2023-05-10T14:33:28.479Z,16.85
2023-05-10T14:35:58.454Z,16.80
2023-05-10T14:38:26.339Z,16.79
2023-05-10T14:40:54.246Z,16.79
2023-05-10T14:43:22.568Z,16.83
2023-05-10T14:45:50.861Z,16.96
2023-05-10T14:48:19.009Z,17.11
2023-05-10T14:50:47.305Z,17.29
2023-05-10T14:53:15.362Z,17.47
2023-05-10T14:55:43.643Z,17.64
2023-05-10T14:58:12.023Z,17.77
2023-05-10T15:00:40.205Z,17.85
2023-05-10T15:03:09.048Z,17.89
2023-05-10T15:05:38.757Z,17.95
2023-05-10T15:08:07.372Z,17.97
2023-05-10T15:10:36.228Z,18.00
2023-05-10T15:13:05.155Z,18.02
2023-05-10T15:15:33.378Z,17.71
2023-05-10T15:18:01.947Z,17.58
2023-05-10T15:20:30.298Z,17.40
2023-05-10T15:22:58.578Z,17.08
2023-05-10T15:25:27.264Z,17.09
2023-05-10T15:27:55.704Z,16.95
2023-05-10T15:30:23.906Z,17.06
2023-05-10T15:32:51.975Z,17.04
2023-05-10T15:35:20.271Z,16.97
2023-05-10T15:37:49.982Z,16.81
2023-05-10T15:40:18.267Z,16.78
2023-05-10T15:42:46.321Z,16.73
2023-05-10T15:45:16.508Z,16.72
2023-05-10T15:47:45.846Z,16.64
2023-05-10T15:50:15.655Z,16.59
2023-05-10T15:52:43.559Z,16.37
2023-05-10T15:55:15.090Z,16.27
2023-05-10T15:57:44.893Z,16.05
2023-05-10T16:00:13.783Z,15.92
2023-05-10T16:02:42.038Z,15.66
2023-05-10T16:05:10.429Z,15.49
2023-05-10T16:07:38.529Z,15.47
2023-05-10T16:10:08.585Z,15.37
2023-05-10T16:12:37.114Z,15.41
2023-05-10T16:15:06.212Z,15.29
2023-05-10T16:17:34.432Z,15.28
2023-05-10T16:20:02.847Z,15.33
2023-05-10T16:22:31.027Z,15.34
2023-05-10T16:24:59.723Z,15.33
2023-05-10T16:27:30.284Z,15.22
2023-05-10T16:29:58.640Z,15.17
2023-05-10T16:32:26.737Z,15.12
2023-05-10T16:34:55.022Z,15.02
2023-05-10T16:37:23.151Z,14.99
2023-05-10T16:39:51.227Z,14.95
2023-05-10T16:42:19.188Z,14.91
2023-05-10T16:44:47.646Z,14.87
2023-05-10T16:47:16.358Z,14.83
2023-05-10T16:49:44.543Z,14.74
2023-05-10T16:52:12.636Z,14.67
2023-05-10T16:54:40.675Z,14.67
2023-05-10T16:57:08.682Z,14.59
2023-05-10T16:59:36.585Z,14.59
2023-05-10T17:02:04.834Z,14.59
2023-05-10T17:04:32.972Z,14.57
2023-05-10T17:07:01.123Z,14.53
2023-05-10T17:09:29.112Z,14.51
2023-05-10T17:11:57.526Z,14.44
2023-05-10T17:14:25.585Z,14.39
2023-05-10T17:16:55.219Z,14.33
2023-05-10T17:19:25.557Z,14.30
2023-05-10T17:21:54.462Z,14.22
2023-05-10T17:24:22.476Z,14.17
2023-05-10T17:26:50.796Z,14.05
2023-05-10T17:29:19.007Z,14.05
2023-05-10T17:31:47.763Z,14.00
2023-05-10T17:34:15.768Z,13.96
2023-05-10T17:36:43.942Z,13.90
2023-05-10T17:39:12.018Z,13.83
2023-05-10T17:41:41.060Z,13.76
2023-05-10T17:44:09.088Z,13.69
2023-05-10T17:46:38.071Z,13.63
2023-05-10T17:49:06.162Z,13.54
2023-05-10T17:51:34.523Z,13.48
2023-05-10T17:54:02.710Z,13.41
2023-05-10T17:56:30.776Z,13.33
2023-05-10T17:58:59.053Z,13.30
2023-05-10T18:01:27.040Z,13.23
2023-05-10T18:03:55.187Z,13.17
2023-05-10T18:06:23.763Z,13.13
2023-05-10T18:08:51.847Z,13.07
2023-05-10T18:11:20.115Z,13.00
2023-05-10T18:13:48.078Z,12.96
2023-05-10T18:16:16.406Z,12.94
2023-05-10T18:18:44.655Z,12.89
2023-05-10T18:21:12.690Z,12.86
2023-05-10T18:23:41.913Z,12.84
2023-05-10T18:26:09.990Z,12.82
2023-05-10T18:28:38.251Z,12.78
2023-05-10T18:31:06.465Z,12.74
2023-05-10T18:33:34.502Z,12.70
2023-05-10T18:36:02.688Z,12.66
2023-05-10T18:38:31.268Z,12.61
2023-05-10T18:40:59.357Z,12.56
2023-05-10T18:43:27.409Z,12.50
2023-05-10T18:45:55.512Z,12.45
2023-05-10T18:48:23.589Z,12.41
2023-05-10T18:50:51.721Z,12.35
2023-05-10T18:53:19.800Z,12.29
2023-05-10T18:55:57.171Z,12.20
2023-05-10T18:58:28.336Z,12.11
2023-05-10T19:00:56.599Z,12.04
2023-05-10T19:03:24.644Z,11.98
2023-05-10T19:05:52.612Z,11.94
2023-05-10T19:08:20.817Z,11.91
2023-05-10T19:10:49.107Z,11.85
2023-05-10T19:13:19.214Z,11.80
2023-05-10T19:15:48.178Z,11.76
2023-05-10T19:18:16.625Z,11.71
2023-05-10T19:20:45.687Z,11.65
2023-05-10T19:23:13.761Z,11.57
2023-05-10T19:25:42.450Z,11.49
2023-05-10T19:28:11.765Z,11.41
2023-05-10T19:30:39.679Z,11.36
2023-05-10T19:33:09.400Z,11.32
2023-05-10T19:35:38.893Z,11.29
2023-05-10T19:38:07.099Z,11.26
2023-05-10T19:40:35.280Z,11.24
2023-05-10T19:43:04.373Z,11.22
2023-05-10T19:45:32.448Z,11.20
2023-05-10T19:48:01.502Z,11.18
2023-05-10T19:50:29.825Z,11.16
2023-05-10T19:52:58.721Z,11.15
2023-05-10T19:55:32.020Z,11.13
2023-05-10T19:58:02.939Z,11.08
2023-05-10T20:00:31.841Z,11.04
2023-05-10T20:02:59.830Z,10.98
2023-05-10T20:05:28.905Z,10.93
2023-05-10T20:07:56.967Z,10.86
2023-05-10T20:10:27.163Z,10.79
2023-05-10T20:12:55.348Z,10.73
2023-05-10T20:15:23.971Z,10.68
2023-05-10T20:17:53.263Z,10.60
2023-05-10T20:20:21.947Z,10.57
2023-05-10T20:22:50.492Z,10.54
2023-05-10T20:25:19.335Z,10.51
2023-05-10T20:27:47.383Z,10.46
2023-05-10T20:30:15.926Z,10.41
2023-05-10T20:32:44.473Z,10.32
2023-05-10T20:35:12.497Z,10.27
2023-05-10T20:37:40.690Z,10.24
2023-05-10T20:40:09.885Z,10.20
2023-05-10T20:42:38.073Z,10.17
2023-05-10T20:45:06.719Z,10.14
2023-05-10T20:47:36.347Z,10.15
2023-05-10T20:50:05.146Z,10.13
2023-05-10T20:52:33.116Z,10.12
2023-05-10T20:55:01.181Z,10.11
2023-05-10T20:57:29.587Z,10.10
2023-05-10T20:59:57.864Z,10.08
2023-05-10T21:02:26.277Z,10.06
2023-05-10T21:04:57.042Z,10.06
2023-05-10T21:07:25.903Z,10.03
2023-05-10T21:09:53.796Z,10.02
2023-05-10T21:12:21.998Z,10.01
2023-05-10T21:14:50.177Z,10.00
2023-05-10T21:17:19.984Z,9.98
2023-05-10T21:19:48.421Z,9.97
2023-05-10T21:22:16.944Z,9.96
2023-05-10T21:24:45.223Z,9.93
2023-05-10T21:27:13.500Z,9.92
2023-05-10T21:29:41.482Z,9.89
2023-05-10T21:32:09.932Z,9.86
2023-05-10T21:34:38.017Z,9.85
2023-05-10T21:37:06.065Z,9.83
2023-05-10T21:39:34.061Z,9.82
2023-05-10T21:42:03.621Z,9.81
2023-05-10T21:44:32.235Z,9.80
2023-05-10T21:47:00.197Z,9.80
2023-05-10T21:49:28.137Z,9.78
2023-05-10T21:51:56.069Z,9.77
2023-05-10T21:54:24.129Z,9.78
2023-05-10T21:56:52.536Z,9.78
2023-05-10T21:59:21.803Z,9.79
2023-05-10T22:01:49.905Z,9.79
2023-05-10T22:04:17.978Z,9.79
2023-05-10T22:06:46.031Z,9.79
2023-05-10T22:09:14.297Z,9.80
2023-05-10T22:11:42.372Z,9.79
2023-05-10T22:14:10.450Z,9.80
2023-05-10T22:16:38.443Z,9.80
2023-05-10T22:19:06.623Z,9.79
2023-05-10T22:21:34.864Z,9.78
2023-05-10T22:24:02.827Z,9.78
2023-05-10T22:26:30.703Z,9.77
2023-05-10T22:28:58.873Z,9.77
2023-05-10T22:31:27.124Z,9.76
2023-05-10T22:33:55.534Z,9.75
2023-05-10T22:36:23.461Z,9.73
2023-05-10T22:38:51.515Z,9.71
2023-05-10T22:41:19.541Z,9.69
2023-05-10T22:43:47.520Z,9.67
2023-05-10T22:46:15.722Z,9.64
2023-05-10T22:48:43.955Z,9.62
2023-05-10T22:51:12.144Z,9.58
2023-05-10T22:53:40.120Z,9.53
2023-05-10T22:56:08.086Z,9.49
2023-05-10T22:58:36.072Z,9.44
2023-05-10T23:01:04.424Z,9.39
2023-05-10T23:03:32.486Z,9.34
2023-05-10T23:06:00.673Z,9.30
2023-05-10T23:08:28.652Z,9.27
2023-05-10T23:10:57.026Z,9.23
2023-05-10T23:13:25.004Z,9.18
2023-05-10T23:15:53.101Z,9.16
2023-05-10T23:18:21.185Z,9.13
2023-05-10T23:20:49.411Z,9.07
2023-05-10T23:23:17.375Z,9.03
2023-05-10T23:25:45.240Z,8.98
2023-05-10T23:28:13.441Z,8.93
2023-05-10T23:30:41.590Z,8.88
2023-05-10T23:33:09.670Z,8.84
2023-05-10T23:35:37.834Z,8.80
2023-05-10T23:38:06.012Z,8.74
2023-05-10T23:40:35.741Z,8.70
2023-05-10T23:43:03.729Z,8.66
2023-05-10T23:45:31.784Z,8.62
2023-05-10T23:47:59.967Z,8.59
2023-05-10T23:50:28.003Z,8.55
2023-05-10T23:52:55.885Z,8.51
2023-05-10T23:55:23.816Z,8.46
2023-05-10T23:57:51.816Z,8.42
